sensor_id;sensor_type;location;lat;lon;timestamp;P1;durP1;ratioP1;P2;durP2;ratioP2
21843;SDS011;11084;52.482;9.108;2023-04-08T00:01:19;3.37;;;2.10;;
21843;SDS011;11084;52.482;9.108;2023-04-08T00:03:45;3.40;;;2.00;;
21843;SDS011;11084;52.482;9.108;2023-04-08T00:06:11;2.23;;;1.60;;
21843;SDS011;11084;52.482;9.108;2023-04-08T00:08:37;1.73;;;1.63;;
21843;SDS011;11084;52.482;9.108;2023-04-08T00:11:03;3.47;;;2.40;;
21843;SDS011;11084;52.482;9.108;2023-04-08T00:13:29;2.83;;;1.70;;
21843;SDS011;11084;52.482;9.108;2023-04-08T00:15:56;1.60;;;1.50;;
21843;SDS011;11084;52.482;9.108;2023-04-08T00:18:22;1.07;;;1.00;;
21843;SDS011;11084;52.482;9.108;2023-04-08T00:20:48;2.87;;;1.67;;
21843;SDS011;11084;52.482;9.108;2023-04-08T00:23:14;3.83;;;1.93;;
21843;SDS011;11084;52.482;9.108;2023-04-08T00:25:45;2.57;;;2.00;;
21843;SDS011;11084;52.482;9.108;2023-04-08T00:28:11;6.20;;;2.20;;
21843;SDS011;11084;52.482;9.108;2023-04-08T00:30:38;4.47;;;1.70;;
21843;SDS011;11084;52.482;9.108;2023-04-08T00:33:04;3.40;;;2.03;;
21843;SDS011;11084;52.482;9.108;2023-04-08T00:35:30;2.23;;;1.73;;
21843;SDS011;11084;52.482;9.108;2023-04-08T00:37:56;3.00;;;1.70;;
21843;SDS011;11084;52.482;9.108;2023-04-08T00:40:22;4.50;;;1.67;;
21843;SDS011;11084;52.482;9.108;2023-04-08T00:42:48;3.27;;;1.93;;
21843;SDS011;11084;52.482;9.108;2023-04-08T00:45:18;1.83;;;1.47;;
21843;SDS011;11084;52.482;9.108;2023-04-08T00:47:44;2.30;;;1.67;;
21843;SDS011;11084;52.482;9.108;2023-04-08T00:50:11;3.90;;;2.20;;
21843;SDS011;11084;52.482;9.108;2023-04-08T00:52:37;1.53;;;1.43;;
21843;SDS011;11084;52.482;9.108;2023-04-08T00:55:03;2.37;;;1.60;;
21843;SDS011;11084;52.482;9.108;2023-04-08T00:57:30;2.47;;;2.07;;
21843;SDS011;11084;52.482;9.108;2023-04-08T00:59:56;4.40;;;2.60;;
21843;SDS011;11084;52.482;9.108;2023-04-08T01:02:26;10.10;;;3.53;;
21843;SDS011;11084;52.482;9.108;2023-04-08T01:05:23;16.33;;;6.67;;
21843;SDS011;11084;52.482;9.108;2023-04-08T01:07:59;14.83;;;5.97;;
21843;SDS011;11084;52.482;9.108;2023-04-08T01:10:30;5.60;;;2.67;;
21843;SDS011;11084;52.482;9.108;2023-04-08T01:13:03;6.20;;;2.30;;
21843;SDS011;11084;52.482;9.108;2023-04-08T01:15:34;4.67;;;2.87;;
21843;SDS011;11084;52.482;9.108;2023-04-08T01:18:11;2.93;;;2.20;;
21843;SDS011;11084;52.482;9.108;2023-04-08T01:20:39;3.13;;;2.17;;
21843;SDS011;11084;52.482;9.108;2023-04-08T01:23:24;5.13;;;2.17;;
21843;SDS011;11084;52.482;9.108;2023-04-08T01:26:03;3.93;;;1.90;;
21843;SDS011;11084;52.482;9.108;2023-04-08T01:28:29;20.97;;;4.57;;
21843;SDS011;11084;52.482;9.108;2023-04-08T01:30:58;19.80;;;6.57;;
21843;SDS011;11084;52.482;9.108;2023-04-08T01:33:26;18.97;;;6.57;;
21843;SDS011;11084;52.482;9.108;2023-04-08T01:35:54;9.80;;;3.80;;
21843;SDS011;11084;52.482;9.108;2023-04-08T01:38:22;3.27;;;2.30;;
21843;SDS011;11084;52.482;9.108;2023-04-08T01:40:50;5.23;;;1.87;;
21843;SDS011;11084;52.482;9.108;2023-04-08T01:43:18;3.87;;;1.90;;
21843;SDS011;11084;52.482;9.108;2023-04-08T01:45:44;2.83;;;1.57;;
21843;SDS011;11084;52.482;9.108;2023-04-08T01:48:12;4.67;;;2.43;;
21843;SDS011;11084;52.482;9.108;2023-04-08T01:50:43;2.17;;;1.83;;
21843;SDS011;11084;52.482;9.108;2023-04-08T01:53:11;3.10;;;2.00;;
21843;SDS011;11084;52.482;9.108;2023-04-08T01:55:39;7.43;;;2.50;;
21843;SDS011;11084;52.482;9.108;2023-04-08T01:58:06;3.50;;;2.33;;
21843;SDS011;11084;52.482;9.108;2023-04-08T02:00:36;2.60;;;1.80;;
21843;SDS011;11084;52.482;9.108;2023-04-08T02:03:05;4.03;;;2.20;;
21843;SDS011;11084;52.482;9.108;2023-04-08T02:05:32;3.73;;;2.00;;
21843;SDS011;11084;52.482;9.108;2023-04-08T02:07:59;4.97;;;2.17;;
21843;SDS011;11084;52.482;9.108;2023-04-08T02:10:26;4.80;;;2.27;;
21843;SDS011;11084;52.482;9.108;2023-04-08T02:12:52;3.73;;;2.37;;
21843;SDS011;11084;52.482;9.108;2023-04-08T02:15:19;3.57;;;1.83;;
21843;SDS011;11084;52.482;9.108;2023-04-08T02:17:57;4.20;;;2.47;;
21843;SDS011;11084;52.482;9.108;2023-04-08T02:20:42;3.50;;;2.13;;
21843;SDS011;11084;52.482;9.108;2023-04-08T02:23:19;4.27;;;2.10;;
21843;SDS011;11084;52.482;9.108;2023-04-08T02:25:49;6.60;;;2.07;;
21843;SDS011;11084;52.482;9.108;2023-04-08T02:28:19;3.27;;;1.97;;
21843;SDS011;11084;52.482;9.108;2023-04-08T02:30:50;3.50;;;2.20;;
21843;SDS011;11084;52.482;9.108;2023-04-08T02:33:18;4.57;;;2.60;;
21843;SDS011;11084;52.482;9.108;2023-04-08T02:35:46;5.47;;;2.37;;
21843;SDS011;11084;52.482;9.108;2023-04-08T02:38:15;3.53;;;2.10;;
21843;SDS011;11084;52.482;9.108;2023-04-08T02:40:42;4.40;;;2.50;;
21843;SDS011;11084;52.482;9.108;2023-04-08T02:43:08;2.20;;;1.83;;
21843;SDS011;11084;52.482;9.108;2023-04-08T02:45:37;7.47;;;3.00;;
21843;SDS011;11084;52.482;9.108;2023-04-08T02:48:07;3.83;;;2.10;;
21843;SDS011;11084;52.482;9.108;2023-04-08T02:50:33;3.03;;;1.97;;
21843;SDS011;11084;52.482;9.108;2023-04-08T02:53:00;4.50;;;2.37;;
21843;SDS011;11084;52.482;9.108;2023-04-08T02:55:28;6.83;;;2.50;;
21843;SDS011;11084;52.482;9.108;2023-04-08T02:57:54;4.57;;;2.00;;
21843;SDS011;11084;52.482;9.108;2023-04-08T03:00:20;4.53;;;2.13;;
21843;SDS011;11084;52.482;9.108;2023-04-08T03:02:47;3.20;;;2.03;;
21843;SDS011;11084;52.482;9.108;2023-04-08T03:05:12;3.37;;;2.10;;
21843;SDS011;11084;52.482;9.108;2023-04-08T03:07:40;4.03;;;2.27;;
21843;SDS011;11084;52.482;9.108;2023-04-08T03:10:06;6.07;;;2.77;;
21843;SDS011;11084;52.482;9.108;2023-04-08T03:12:33;3.77;;;2.20;;
21843;SDS011;11084;52.482;9.108;2023-04-08T03:14:59;4.43;;;2.67;;
21843;SDS011;11084;52.482;9.108;2023-04-08T03:17:25;3.73;;;2.47;;
21843;SDS011;11084;52.482;9.108;2023-04-08T03:19:52;3.93;;;2.63;;
21843;SDS011;11084;52.482;9.108;2023-04-08T03:22:18;3.33;;;2.53;;
21843;SDS011;11084;52.482;9.108;2023-04-08T03:24:44;5.33;;;2.70;;
21843;SDS011;11084;52.482;9.108;2023-04-08T03:27:10;8.63;;;2.90;;
21843;SDS011;11084;52.482;9.108;2023-04-08T03:29:37;6.77;;;2.57;;
21843;SDS011;11084;52.482;9.108;2023-04-08T03:32:03;4.57;;;2.97;;
21843;SDS011;11084;52.482;9.108;2023-04-08T03:34:29;3.53;;;2.40;;
21843;SDS011;11084;52.482;9.108;2023-04-08T03:36:55;6.07;;;2.87;;
21843;SDS011;11084;52.482;9.108;2023-04-08T03:39:22;3.43;;;2.40;;
21843;SDS011;11084;52.482;9.108;2023-04-08T03:41:47;3.37;;;2.17;;
21843;SDS011;11084;52.482;9.108;2023-04-08T03:44:13;5.17;;;2.90;;
21843;SDS011;11084;52.482;9.108;2023-04-08T03:46:39;4.50;;;2.67;;
21843;SDS011;11084;52.482;9.108;2023-04-08T03:49:05;5.83;;;3.30;;
21843;SDS011;11084;52.482;9.108;2023-04-08T03:51:31;5.03;;;2.43;;
21843;SDS011;11084;52.482;9.108;2023-04-08T03:53:57;4.53;;;3.07;;
21843;SDS011;11084;52.482;9.108;2023-04-08T03:56:23;7.50;;;2.90;;
21843;SDS011;11084;52.482;9.108;2023-04-08T03:58:50;6.17;;;2.40;;
21843;SDS011;11084;52.482;9.108;2023-04-08T04:01:16;3.50;;;2.13;;
21843;SDS011;11084;52.482;9.108;2023-04-08T04:03:42;3.27;;;2.33;;
21843;SDS011;11084;52.482;9.108;2023-04-08T04:06:08;3.67;;;2.63;;
21843;SDS011;11084;52.482;9.108;2023-04-08T04:08:34;4.83;;;2.73;;
21843;SDS011;11084;52.482;9.108;2023-04-08T04:11:01;5.97;;;3.03;;
21843;SDS011;11084;52.482;9.108;2023-04-08T04:13:26;6.27;;;2.50;;
21843;SDS011;11084;52.482;9.108;2023-04-08T04:15:52;5.83;;;3.17;;
21843;SDS011;11084;52.482;9.108;2023-04-08T04:18:19;7.87;;;3.43;;
21843;SDS011;11084;52.482;9.108;2023-04-08T04:20:45;7.37;;;4.23;;
21843;SDS011;11084;52.482;9.108;2023-04-08T04:23:11;6.43;;;3.87;;
21843;SDS011;11084;52.482;9.108;2023-04-08T04:25:39;12.20;;;3.57;;
21843;SDS011;11084;52.482;9.108;2023-04-08T04:28:06;4.90;;;2.67;;
21843;SDS011;11084;52.482;9.108;2023-04-08T04:30:37;6.10;;;3.80;;
21843;SDS011;11084;52.482;9.108;2023-04-08T04:33:04;5.07;;;3.17;;
21843;SDS011;11084;52.482;9.108;2023-04-08T04:35:31;5.50;;;3.20;;
21843;SDS011;11084;52.482;9.108;2023-04-08T04:37:57;7.60;;;4.47;;
21843;SDS011;11084;52.482;9.108;2023-04-08T04:43:35;6.87;;;3.60;;
21843;SDS011;11084;52.482;9.108;2023-04-08T04:46:02;7.33;;;4.07;;
21843;SDS011;11084;52.482;9.108;2023-04-08T04:48:31;6.40;;;3.40;;
21843;SDS011;11084;52.482;9.108;2023-04-08T04:50:58;5.77;;;3.80;;
21843;SDS011;11084;52.482;9.108;2023-04-08T04:53:27;7.37;;;3.60;;
21843;SDS011;11084;52.482;9.108;2023-04-08T04:55:54;5.83;;;3.77;;
21843;SDS011;11084;52.482;9.108;2023-04-08T04:58:20;5.27;;;3.23;;
21843;SDS011;11084;52.482;9.108;2023-04-08T05:00:46;6.17;;;3.40;;
21843;SDS011;11084;52.482;9.108;2023-04-08T05:03:12;8.57;;;4.27;;
21843;SDS011;11084;52.482;9.108;2023-04-08T05:05:38;7.30;;;3.30;;
21843;SDS011;11084;52.482;9.108;2023-04-08T05:08:05;7.83;;;3.83;;
21843;SDS011;11084;52.482;9.108;2023-04-08T05:10:31;7.43;;;3.80;;
21843;SDS011;11084;52.482;9.108;2023-04-08T05:12:57;6.07;;;3.67;;
21843;SDS011;11084;52.482;9.108;2023-04-08T05:15:23;6.67;;;3.93;;
21843;SDS011;11084;52.482;9.108;2023-04-08T05:17:50;8.63;;;4.13;;
21843;SDS011;11084;52.482;9.108;2023-04-08T05:20:15;6.50;;;3.50;;
21843;SDS011;11084;52.482;9.108;2023-04-08T05:22:41;6.90;;;4.07;;
21843;SDS011;11084;52.482;9.108;2023-04-08T05:25:09;9.23;;;3.93;;
21843;SDS011;11084;52.482;9.108;2023-04-08T05:27:35;7.30;;;4.13;;
21843;SDS011;11084;52.482;9.108;2023-04-08T05:30:02;14.50;;;4.40;;
21843;SDS011;11084;52.482;9.108;2023-04-08T05:32:29;12.50;;;4.07;;
21843;SDS011;11084;52.482;9.108;2023-04-08T05:34:55;6.30;;;4.17;;
21843;SDS011;11084;52.482;9.108;2023-04-08T05:37:21;8.93;;;5.30;;
21843;SDS011;11084;52.482;9.108;2023-04-08T05:39:47;7.47;;;4.27;;
21843;SDS011;11084;52.482;9.108;2023-04-08T05:42:13;7.17;;;4.03;;
21843;SDS011;11084;52.482;9.108;2023-04-08T05:44:39;10.83;;;4.80;;
21843;SDS011;11084;52.482;9.108;2023-04-08T05:47:08;8.17;;;4.10;;
21843;SDS011;11084;52.482;9.108;2023-04-08T05:49:34;12.37;;;4.60;;
21843;SDS011;11084;52.482;9.108;2023-04-08T05:52:01;10.23;;;4.67;;
21843;SDS011;11084;52.482;9.108;2023-04-08T05:54:28;19.23;;;5.73;;
21843;SDS011;11084;52.482;9.108;2023-04-08T05:56:54;9.67;;;4.83;;
21843;SDS011;11084;52.482;9.108;2023-04-08T05:59:20;10.07;;;4.13;;
21843;SDS011;11084;52.482;9.108;2023-04-08T06:01:46;12.00;;;5.53;;
21843;SDS011;11084;52.482;9.108;2023-04-08T06:04:12;13.97;;;5.00;;
21843;SDS011;11084;52.482;9.108;2023-04-08T06:06:38;13.53;;;5.23;;
21843;SDS011;11084;52.482;9.108;2023-04-08T06:09:04;8.03;;;4.77;;
21843;SDS011;11084;52.482;9.108;2023-04-08T06:11:30;7.17;;;3.60;;
21843;SDS011;11084;52.482;9.108;2023-04-08T06:13:56;15.70;;;4.57;;
21843;SDS011;11084;52.482;9.108;2023-04-08T06:16:22;15.50;;;5.60;;
21843;SDS011;11084;52.482;9.108;2023-04-08T06:18:48;8.77;;;4.77;;
21843;SDS011;11084;52.482;9.108;2023-04-08T06:21:14;13.20;;;5.60;;
21843;SDS011;11084;52.482;9.108;2023-04-08T06:23:41;14.53;;;5.43;;
21843;SDS011;11084;52.482;9.108;2023-04-08T06:26:06;12.17;;;5.10;;
21843;SDS011;11084;52.482;9.108;2023-04-08T06:28:32;11.27;;;5.00;;
21843;SDS011;11084;52.482;9.108;2023-04-08T06:30:58;12.27;;;5.53;;
21843;SDS011;11084;52.482;9.108;2023-04-08T06:33:25;7.67;;;4.07;;
21843;SDS011;11084;52.482;9.108;2023-04-08T06:35:51;12.17;;;5.67;;
21843;SDS011;11084;52.482;9.108;2023-04-08T06:38:26;9.60;;;4.63;;
21843;SDS011;11084;52.482;9.108;2023-04-08T06:40:52;11.90;;;5.37;;
21843;SDS011;11084;52.482;9.108;2023-04-08T06:43:18;6.77;;;4.03;;
21843;SDS011;11084;52.482;9.108;2023-04-08T06:45:44;11.87;;;5.33;;
21843;SDS011;11084;52.482;9.108;2023-04-08T06:48:17;9.57;;;5.17;;
21843;SDS011;11084;52.482;9.108;2023-04-08T06:50:43;11.60;;;5.63;;
21843;SDS011;11084;52.482;9.108;2023-04-08T06:53:16;8.67;;;4.47;;
21843;SDS011;11084;52.482;9.108;2023-04-08T06:55:48;9.10;;;4.80;;
21843;SDS011;11084;52.482;9.108;2023-04-08T06:58:21;12.43;;;5.13;;
21843;SDS011;11084;52.482;9.108;2023-04-08T07:00:47;14.57;;;4.77;;
21843;SDS011;11084;52.482;9.108;2023-04-08T07:03:13;6.70;;;4.10;;
21843;SDS011;11084;52.482;9.108;2023-04-08T07:05:40;13.50;;;4.33;;
21843;SDS011;11084;52.482;9.108;2023-04-08T07:08:06;11.03;;;4.90;;
21843;SDS011;11084;52.482;9.108;2023-04-08T07:10:39;12.13;;;4.63;;
21843;SDS011;11084;52.482;9.108;2023-04-08T07:13:06;11.57;;;5.10;;
21843;SDS011;11084;52.482;9.108;2023-04-08T07:15:32;11.00;;;5.50;;
21843;SDS011;11084;52.482;9.108;2023-04-08T07:18:05;10.50;;;5.17;;
21843;SDS011;11084;52.482;9.108;2023-04-08T07:20:37;9.40;;;4.87;;
21843;SDS011;11084;52.482;9.108;2023-04-08T07:23:09;8.17;;;4.17;;
21843;SDS011;11084;52.482;9.108;2023-04-08T07:25:41;13.43;;;5.33;;
21843;SDS011;11084;52.482;9.108;2023-04-08T07:28:13;9.80;;;4.63;;
21843;SDS011;11084;52.482;9.108;2023-04-08T07:30:46;11.53;;;5.10;;
21843;SDS011;11084;52.482;9.108;2023-04-08T07:33:18;9.10;;;4.27;;
21843;SDS011;11084;52.482;9.108;2023-04-08T07:35:50;9.87;;;4.93;;
21843;SDS011;11084;52.482;9.108;2023-04-08T07:38:25;8.80;;;4.73;;
21843;SDS011;11084;52.482;9.108;2023-04-08T07:40:58;7.33;;;4.23;;
21843;SDS011;11084;52.482;9.108;2023-04-08T07:43:31;7.23;;;4.00;;
21843;SDS011;11084;52.482;9.108;2023-04-08T07:46:07;8.77;;;3.97;;
21843;SDS011;11084;52.482;9.108;2023-04-08T07:48:34;10.60;;;4.87;;
21843;SDS011;11084;52.482;9.108;2023-04-08T07:51:03;7.80;;;3.90;;
21843;SDS011;11084;52.482;9.108;2023-04-08T07:53:31;8.13;;;4.00;;
21843;SDS011;11084;52.482;9.108;2023-04-08T07:55:58;12.00;;;4.77;;
21843;SDS011;11084;52.482;9.108;2023-04-08T07:58:25;9.07;;;5.03;;
21843;SDS011;11084;52.482;9.108;2023-04-08T08:00:51;7.13;;;4.17;;
21843;SDS011;11084;52.482;9.108;2023-04-08T08:03:18;9.00;;;4.40;;
21843;SDS011;11084;52.482;9.108;2023-04-08T08:05:44;8.83;;;3.97;;
21843;SDS011;11084;52.482;9.108;2023-04-08T08:08:10;9.00;;;4.13;;
21843;SDS011;11084;52.482;9.108;2023-04-08T08:10:37;5.57;;;3.73;;
21843;SDS011;11084;52.482;9.108;2023-04-08T08:13:04;9.27;;;4.97;;
21843;SDS011;11084;52.482;9.108;2023-04-08T08:15:31;8.93;;;4.30;;
21843;SDS011;11084;52.482;9.108;2023-04-08T08:17:57;9.07;;;4.17;;
21843;SDS011;11084;52.482;9.108;2023-04-08T08:20:23;7.43;;;4.23;;
21843;SDS011;11084;52.482;9.108;2023-04-08T08:22:50;15.47;;;4.43;;
21843;SDS011;11084;52.482;9.108;2023-04-08T08:25:16;8.73;;;4.20;;
21843;SDS011;11084;52.482;9.108;2023-04-08T08:27:42;9.10;;;4.00;;
21843;SDS011;11084;52.482;9.108;2023-04-08T08:30:09;7.40;;;3.97;;
21843;SDS011;11084;52.482;9.108;2023-04-08T08:32:35;9.17;;;3.83;;
21843;SDS011;11084;52.482;9.108;2023-04-08T08:35:02;10.60;;;4.10;;
21843;SDS011;11084;52.482;9.108;2023-04-08T08:37:28;9.17;;;4.57;;
21843;SDS011;11084;52.482;9.108;2023-04-08T08:39:54;10.77;;;4.10;;
21843;SDS011;11084;52.482;9.108;2023-04-08T08:42:23;9.40;;;4.17;;
21843;SDS011;11084;52.482;9.108;2023-04-08T08:44:50;7.93;;;4.03;;
21843;SDS011;11084;52.482;9.108;2023-04-08T08:47:17;6.90;;;3.83;;
21843;SDS011;11084;52.482;9.108;2023-04-08T08:49:43;9.57;;;4.30;;
21843;SDS011;11084;52.482;9.108;2023-04-08T08:52:09;7.93;;;4.37;;
21843;SDS011;11084;52.482;9.108;2023-04-08T08:54:37;11.50;;;4.30;;
21843;SDS011;11084;52.482;9.108;2023-04-08T08:57:03;9.50;;;4.60;;
21843;SDS011;11084;52.482;9.108;2023-04-08T08:59:29;9.13;;;4.07;;
21843;SDS011;11084;52.482;9.108;2023-04-08T09:01:55;7.33;;;3.70;;
21843;SDS011;11084;52.482;9.108;2023-04-08T09:04:21;11.77;;;4.80;;
21843;SDS011;11084;52.482;9.108;2023-04-08T09:07:09;8.77;;;4.40;;
21843;SDS011;11084;52.482;9.108;2023-04-08T09:09:48;12.20;;;4.87;;
21843;SDS011;11084;52.482;9.108;2023-04-08T09:12:15;7.67;;;3.57;;
21843;SDS011;11084;52.482;9.108;2023-04-08T09:14:42;7.83;;;3.50;;
21843;SDS011;11084;52.482;9.108;2023-04-08T09:17:14;11.57;;;4.37;;
21843;SDS011;11084;52.482;9.108;2023-04-08T09:25:27;8.20;;;3.53;;
21843;SDS011;11084;52.482;9.108;2023-04-08T09:28:03;7.13;;;3.93;;
21843;SDS011;11084;52.482;9.108;2023-04-08T09:30:30;9.00;;;4.37;;
21843;SDS011;11084;52.482;9.108;2023-04-08T09:33:03;9.67;;;4.63;;
21843;SDS011;11084;52.482;9.108;2023-04-08T09:35:37;8.60;;;4.17;;
21843;SDS011;11084;52.482;9.108;2023-04-08T09:38:09;11.70;;;4.37;;
21843;SDS011;11084;52.482;9.108;2023-04-08T09:40:41;13.83;;;4.10;;
21843;SDS011;11084;52.482;9.108;2023-04-08T09:43:09;9.30;;;4.50;;
21843;SDS011;11084;52.482;9.108;2023-04-08T09:45:47;14.83;;;4.20;;
21843;SDS011;11084;52.482;9.108;2023-04-08T09:48:21;9.03;;;4.87;;
21843;SDS011;11084;52.482;9.108;2023-04-08T09:50:52;12.93;;;5.23;;
21843;SDS011;11084;52.482;9.108;2023-04-08T09:55:59;9.57;;;4.47;;
21843;SDS011;11084;52.482;9.108;2023-04-08T09:58:43;10.07;;;4.60;;
21843;SDS011;11084;52.482;9.108;2023-04-08T10:01:17;10.17;;;4.83;;
21843;SDS011;11084;52.482;9.108;2023-04-08T10:04:11;8.87;;;4.67;;
21843;SDS011;11084;52.482;9.108;2023-04-08T10:06:41;12.30;;;4.90;;
21843;SDS011;11084;52.482;9.108;2023-04-08T10:09:07;8.40;;;4.50;;
21843;SDS011;11084;52.482;9.108;2023-04-08T10:11:34;12.20;;;4.93;;
21843;SDS011;11084;52.482;9.108;2023-04-08T10:14:01;10.40;;;5.20;;
21843;SDS011;11084;52.482;9.108;2023-04-08T10:16:27;9.93;;;4.90;;
21843;SDS011;11084;52.482;9.108;2023-04-08T10:40:56;11.30;;;4.57;;
21843;SDS011;11084;52.482;9.108;2023-04-08T10:43:22;9.67;;;4.93;;
21843;SDS011;11084;52.482;9.108;2023-04-08T10:45:48;10.57;;;4.43;;
21843;SDS011;11084;52.482;9.108;2023-04-08T10:48:19;9.40;;;3.97;;
21843;SDS011;11084;52.482;9.108;2023-04-08T10:50:58;7.40;;;3.83;;
21843;SDS011;11084;52.482;9.108;2023-04-08T10:53:27;9.60;;;4.47;;
21843;SDS011;11084;52.482;9.108;2023-04-08T10:56:07;9.27;;;4.50;;
21843;SDS011;11084;52.482;9.108;2023-04-08T11:01:16;10.13;;;4.20;;
21843;SDS011;11084;52.482;9.108;2023-04-08T11:03:43;8.73;;;4.60;;
21843;SDS011;11084;52.482;9.108;2023-04-08T11:06:09;13.50;;;5.63;;
21843;SDS011;11084;52.482;9.108;2023-04-08T11:08:36;12.47;;;4.30;;
21843;SDS011;11084;52.482;9.108;2023-04-08T11:11:03;12.93;;;4.70;;
21843;SDS011;11084;52.482;9.108;2023-04-08T11:13:39;12.47;;;5.23;;
21843;SDS011;11084;52.482;9.108;2023-04-08T11:16:10;13.43;;;4.43;;
21843;SDS011;11084;52.482;9.108;2023-04-08T11:18:38;8.70;;;4.93;;
21843;SDS011;11084;52.482;9.108;2023-04-08T11:21:08;8.27;;;4.57;;
21843;SDS011;11084;52.482;9.108;2023-04-08T11:23:35;8.50;;;4.47;;
21843;SDS011;11084;52.482;9.108;2023-04-08T11:26:02;10.63;;;5.13;;
21843;SDS011;11084;52.482;9.108;2023-04-08T11:28:28;8.40;;;4.30;;
21843;SDS011;11084;52.482;9.108;2023-04-08T11:30:55;9.43;;;4.70;;
21843;SDS011;11084;52.482;9.108;2023-04-08T11:33:25;9.53;;;4.67;;
21843;SDS011;11084;52.482;9.108;2023-04-08T11:35:51;11.60;;;5.53;;
21843;SDS011;11084;52.482;9.108;2023-04-08T11:38:21;10.80;;;6.13;;
21843;SDS011;11084;52.482;9.108;2023-04-08T11:40:55;9.93;;;4.87;;
21843;SDS011;11084;52.482;9.108;2023-04-08T11:43:23;7.37;;;4.70;;
21843;SDS011;11084;52.482;9.108;2023-04-08T11:45:50;9.43;;;4.80;;
21843;SDS011;11084;52.482;9.108;2023-04-08T11:48:16;12.10;;;5.37;;
21843;SDS011;11084;52.482;9.108;2023-04-08T11:50:43;9.30;;;4.73;;
21843;SDS011;11084;52.482;9.108;2023-04-08T11:53:16;9.03;;;4.80;;
21843;SDS011;11084;52.482;9.108;2023-04-08T11:55:49;10.13;;;4.93;;
21843;SDS011;11084;52.482;9.108;2023-04-08T11:58:16;9.77;;;5.13;;
21843;SDS011;11084;52.482;9.108;2023-04-08T12:00:42;13.63;;;4.80;;
21843;SDS011;11084;52.482;9.108;2023-04-08T12:03:09;11.17;;;5.20;;
21843;SDS011;11084;52.482;9.108;2023-04-08T12:05:37;10.23;;;4.63;;
21843;SDS011;11084;52.482;9.108;2023-04-08T12:08:03;12.47;;;5.37;;
21843;SDS011;11084;52.482;9.108;2023-04-08T12:10:29;10.43;;;5.17;;
21843;SDS011;11084;52.482;9.108;2023-04-08T12:12:55;11.47;;;5.00;;
21843;SDS011;11084;52.482;9.108;2023-04-08T12:15:21;11.10;;;5.10;;
21843;SDS011;11084;52.482;9.108;2023-04-08T12:17:47;11.17;;;5.23;;
21843;SDS011;11084;52.482;9.108;2023-04-08T12:20:14;7.50;;;5.07;;
21843;SDS011;11084;52.482;9.108;2023-04-08T12:22:41;8.37;;;4.63;;
21843;SDS011;11084;52.482;9.108;2023-04-08T12:25:07;9.70;;;4.80;;
21843;SDS011;11084;52.482;9.108;2023-04-08T12:27:33;11.13;;;5.17;;
21843;SDS011;11084;52.482;9.108;2023-04-08T12:30:00;10.63;;;5.03;;
21843;SDS011;11084;52.482;9.108;2023-04-08T12:32:27;14.13;;;5.30;;
21843;SDS011;11084;52.482;9.108;2023-04-08T12:34:54;12.87;;;5.40;;
21843;SDS011;11084;52.482;9.108;2023-04-08T12:37:20;18.93;;;5.50;;
21843;SDS011;11084;52.482;9.108;2023-04-08T12:39:46;9.00;;;4.47;;
21843;SDS011;11084;52.482;9.108;2023-04-08T12:42:13;9.10;;;4.90;;
21843;SDS011;11084;52.482;9.108;2023-04-08T12:44:39;10.07;;;4.90;;
21843;SDS011;11084;52.482;9.108;2023-04-08T12:47:05;13.17;;;5.80;;
21843;SDS011;11084;52.482;9.108;2023-04-08T12:49:31;14.07;;;5.70;;
21843;SDS011;11084;52.482;9.108;2023-04-08T12:51:57;11.97;;;5.23;;
21843;SDS011;11084;52.482;9.108;2023-04-08T12:54:23;11.50;;;5.37;;
21843;SDS011;11084;52.482;9.108;2023-04-08T12:56:49;15.00;;;6.10;;
21843;SDS011;11084;52.482;9.108;2023-04-08T12:59:15;10.90;;;5.37;;
21843;SDS011;11084;52.482;9.108;2023-04-08T13:01:41;12.97;;;4.97;;
21843;SDS011;11084;52.482;9.108;2023-04-08T13:04:08;8.17;;;5.10;;
21843;SDS011;11084;52.482;9.108;2023-04-08T13:06:34;11.03;;;5.67;;
21843;SDS011;11084;52.482;9.108;2023-04-08T13:09:00;10.57;;;5.30;;
21843;SDS011;11084;52.482;9.108;2023-04-08T13:11:26;13.10;;;5.67;;
21843;SDS011;11084;52.482;9.108;2023-04-08T13:13:52;11.27;;;5.47;;
21843;SDS011;11084;52.482;9.108;2023-04-08T13:16:19;12.93;;;5.83;;
21843;SDS011;11084;52.482;9.108;2023-04-08T13:18:45;11.77;;;5.47;;
21843;SDS011;11084;52.482;9.108;2023-04-08T13:21:11;12.27;;;5.60;;
21843;SDS011;11084;52.482;9.108;2023-04-08T13:23:38;14.20;;;6.03;;
21843;SDS011;11084;52.482;9.108;2023-04-08T13:26:07;10.90;;;5.27;;
21843;SDS011;11084;52.482;9.108;2023-04-08T13:28:33;12.77;;;5.63;;
21843;SDS011;11084;52.482;9.108;2023-04-08T13:30:59;11.40;;;5.40;;
21843;SDS011;11084;52.482;9.108;2023-04-08T13:33:25;8.10;;;5.27;;
21843;SDS011;11084;52.482;9.108;2023-04-08T13:35:51;14.87;;;5.90;;
21843;SDS011;11084;52.482;9.108;2023-04-08T13:38:18;11.63;;;5.10;;
21843;SDS011;11084;52.482;9.108;2023-04-08T13:40:44;8.97;;;4.80;;
21843;SDS011;11084;52.482;9.108;2023-04-08T13:43:10;10.50;;;5.43;;
21843;SDS011;11084;52.482;9.108;2023-04-08T13:45:36;11.53;;;5.20;;
21843;SDS011;11084;52.482;9.108;2023-04-08T13:48:03;8.97;;;4.93;;
21843;SDS011;11084;52.482;9.108;2023-04-08T13:50:29;10.63;;;5.40;;
21843;SDS011;11084;52.482;9.108;2023-04-08T13:52:55;14.90;;;6.37;;
21843;SDS011;11084;52.482;9.108;2023-04-08T13:55:21;11.10;;;5.57;;
21843;SDS011;11084;52.482;9.108;2023-04-08T13:57:47;12.80;;;5.30;;
21843;SDS011;11084;52.482;9.108;2023-04-08T14:00:14;14.27;;;6.30;;
21843;SDS011;11084;52.482;9.108;2023-04-08T14:02:40;14.00;;;5.60;;
21843;SDS011;11084;52.482;9.108;2023-04-08T14:05:06;16.20;;;5.40;;
21843;SDS011;11084;52.482;9.108;2023-04-08T14:07:32;13.00;;;7.10;;
21843;SDS011;11084;52.482;9.108;2023-04-08T14:09:58;11.63;;;5.73;;
21843;SDS011;11084;52.482;9.108;2023-04-08T14:12:25;12.53;;;5.73;;
21843;SDS011;11084;52.482;9.108;2023-04-08T14:14:51;13.50;;;5.50;;
21843;SDS011;11084;52.482;9.108;2023-04-08T14:17:17;9.53;;;5.50;;
21843;SDS011;11084;52.482;9.108;2023-04-08T14:19:43;16.27;;;5.40;;
21843;SDS011;11084;52.482;9.108;2023-04-08T14:22:09;9.10;;;5.40;;
21843;SDS011;11084;52.482;9.108;2023-04-08T14:24:36;11.10;;;5.63;;
21843;SDS011;11084;52.482;9.108;2023-04-08T14:27:02;12.23;;;5.77;;
21843;SDS011;11084;52.482;9.108;2023-04-08T14:29:29;15.43;;;5.77;;
21843;SDS011;11084;52.482;9.108;2023-04-08T14:31:55;16.97;;;6.17;;
21843;SDS011;11084;52.482;9.108;2023-04-08T14:34:21;9.80;;;5.53;;
21843;SDS011;11084;52.482;9.108;2023-04-08T14:36:47;17.07;;;5.97;;
21843;SDS011;11084;52.482;9.108;2023-04-08T14:39:13;14.83;;;5.90;;
21843;SDS011;11084;52.482;9.108;2023-04-08T14:41:39;13.63;;;5.50;;
21843;SDS011;11084;52.482;9.108;2023-04-08T14:44:06;12.07;;;5.90;;
21843;SDS011;11084;52.482;9.108;2023-04-08T14:46:32;17.40;;;5.50;;
21843;SDS011;11084;52.482;9.108;2023-04-08T14:48:58;11.53;;;6.00;;
21843;SDS011;11084;52.482;9.108;2023-04-08T14:51:25;13.27;;;5.60;;
21843;SDS011;11084;52.482;9.108;2023-04-08T14:53:51;14.07;;;5.77;;
21843;SDS011;11084;52.482;9.108;2023-04-08T14:56:17;12.07;;;6.10;;
21843;SDS011;11084;52.482;9.108;2023-04-08T14:58:43;9.60;;;5.57;;
21843;SDS011;11084;52.482;9.108;2023-04-08T15:01:09;9.53;;;4.67;;
21843;SDS011;11084;52.482;9.108;2023-04-08T15:03:36;15.73;;;6.20;;
21843;SDS011;11084;52.482;9.108;2023-04-08T15:06:02;11.17;;;6.10;;
21843;SDS011;11084;52.482;9.108;2023-04-08T15:08:28;10.33;;;5.10;;
21843;SDS011;11084;52.482;9.108;2023-04-08T15:10:54;17.50;;;5.90;;
21843;SDS011;11084;52.482;9.108;2023-04-08T15:13:21;12.17;;;5.77;;
21843;SDS011;11084;52.482;9.108;2023-04-08T15:15:47;11.93;;;6.30;;
21843;SDS011;11084;52.482;9.108;2023-04-08T15:18:14;12.53;;;6.47;;
21843;SDS011;11084;52.482;9.108;2023-04-08T15:20:40;9.50;;;5.40;;
21843;SDS011;11084;52.482;9.108;2023-04-08T15:23:06;12.67;;;6.23;;